createdAt,value
2019-02-27T00:03:50.512Z,10.60
2019-02-27T00:08:57.845Z,10.50
2019-02-27T00:14:03.066Z,10.10
2019-02-27T00:19:08.680Z,10.40
2019-02-27T00:24:14.081Z,10.70
2019-02-27T00:29:19.498Z,10.70
2019-02-27T00:34:24.971Z,10.50
2019-02-27T00:39:31.331Z,9.90
2019-02-27T00:44:37.139Z,9.80
2019-02-27T00:49:43.556Z,9.90
2019-02-27T00:54:48.983Z,10.30
2019-02-27T00:59:54.407Z,10.50
2019-02-27T01:04:59.930Z,10.60
2019-02-27T01:10:11.993Z,10.50
2019-02-27T01:15:15.517Z,10.80
2019-02-27T01:20:21.074Z,10.80
2019-02-27T01:25:26.574Z,11.00
2019-02-27T01:30:31.988Z,10.80
2019-02-27T01:35:37.403Z,10.80
2019-02-27T01:40:43.799Z,11.00
2019-02-27T01:45:49.143Z,11.00
2019-02-27T01:50:55.200Z,11.00
2019-02-27T01:56:01.343Z,11.20
2019-02-27T02:01:06.978Z,11.10
2019-02-27T02:06:13.642Z,11.20
2019-02-27T02:11:19.050Z,10.90
2019-02-27T02:16:34.401Z,10.80
2019-02-27T02:21:52.170Z,10.80
2019-02-27T02:27:24.645Z,10.70
2019-02-27T02:32:53.191Z,11.00
2019-02-27T02:38:36.390Z,10.90
2019-02-27T02:44:21.092Z,10.80
2019-02-27T02:49:48.194Z,10.80
2019-02-27T02:54:59.381Z,10.10
2019-02-27T03:00:17.099Z,9.90
2019-02-27T03:05:43.409Z,9.90
2019-02-27T03:11:04.116Z,9.80
2019-02-27T03:16:24.436Z,9.60
2019-02-27T03:21:35.892Z,9.30
2019-02-27T03:27:05.419Z,9.20
2019-02-27T03:32:25.688Z,9.20
2019-02-27T03:37:55.256Z,9.10
2019-02-27T03:43:12.277Z,9.30
2019-02-27T03:48:37.479Z,9.40
2019-02-27T03:54:02.696Z,10.20
2019-02-27T03:59:19.827Z,10.20
2019-02-27T04:04:49.810Z,10.00
2019-02-27T04:09:56.435Z,9.60
2019-02-27T04:15:02.161Z,9.80
2019-02-27T04:20:07.791Z,9.50
2019-02-27T04:25:13.344Z,9.30
2019-02-27T04:30:18.722Z,9.00
2019-02-27T04:35:24.068Z,8.60
2019-02-27T04:40:29.488Z,8.60
2019-02-27T04:45:35.870Z,8.20
2019-02-27T04:50:41.747Z,8.40
2019-02-27T04:55:50.583Z,8.30
2019-02-27T05:00:59.174Z,8.40
2019-02-27T05:06:02.580Z,8.90
2019-02-27T05:11:08.219Z,8.70
2019-02-27T05:16:14.198Z,8.80
2019-02-27T05:21:20.179Z,8.90
2019-02-27T05:26:27.262Z,9.10
2019-02-27T05:31:32.780Z,9.10
2019-02-27T05:36:38.261Z,9.10
2019-02-27T05:41:43.687Z,9.10
2019-02-27T05:46:49.054Z,8.70
2019-02-27T05:51:54.380Z,9.00
2019-02-27T05:56:59.922Z,9.10
2019-02-27T06:02:05.365Z,9.10
2019-02-27T06:07:10.889Z,9.20
2019-02-27T06:12:16.293Z,8.80
2019-02-27T06:17:21.668Z,9.00
2019-02-27T06:22:30.056Z,9.00
2019-02-27T06:27:34.073Z,9.40
2019-02-27T06:32:40.753Z,9.30
2019-02-27T06:37:50.419Z,9.20
2019-02-27T06:42:53.885Z,9.70
2019-02-27T06:48:00.027Z,10.70
2019-02-27T06:53:05.450Z,12.20
2019-02-27T06:58:14.296Z,11.90
2019-02-27T07:03:17.875Z,13.80
2019-02-27T07:08:23.377Z,14.80
2019-02-27T07:13:29.863Z,16.30
2019-02-27T07:18:36.490Z,16.90
2019-02-27T07:23:42.033Z,17.30
2019-02-27T07:28:47.468Z,17.60
2019-02-27T07:33:53.060Z,17.30
2019-02-27T07:38:58.835Z,17.00
2019-02-27T07:44:04.381Z,16.40
2019-02-27T07:49:09.786Z,16.20
2019-02-27T07:54:15.228Z,17.20
2019-02-27T07:59:20.696Z,17.90
2019-02-27T08:04:26.144Z,17.90
2019-02-27T08:09:31.575Z,17.00
2019-02-27T08:14:37.756Z,16.70
2019-02-27T08:19:45.317Z,17.60
2019-02-27T08:24:50.439Z,18.10
2019-02-27T08:29:55.935Z,18.70
2019-02-27T08:35:01.372Z,18.10
2019-02-27T08:40:09.527Z,19.50
2019-02-27T08:45:20.606Z,21.80
2019-02-27T08:50:26.110Z,20.50
2019-02-27T08:55:31.596Z,21.70
2019-02-27T09:00:38.334Z,23.50
2019-02-27T09:05:43.783Z,23.10
2019-02-27T09:10:49.307Z,23.10
2019-02-27T09:15:54.740Z,20.60
2019-02-27T09:21:00.159Z,19.80
2019-02-27T09:26:05.639Z,20.20
2019-02-27T09:31:12.188Z,20.60
2019-02-27T09:36:17.694Z,21.60
2019-02-27T09:41:23.110Z,22.30
2019-02-27T09:46:29.673Z,22.60
2019-02-27T09:51:36.149Z,22.20
2019-02-27T09:56:41.515Z,21.60
2019-02-27T10:01:46.996Z,21.40
2019-02-27T10:06:52.395Z,22.20
2019-02-27T10:11:57.739Z,22.70
2019-02-27T10:17:03.153Z,23.10
2019-02-27T10:22:08.573Z,21.70
2019-02-27T10:27:13.967Z,20.90
2019-02-27T10:32:19.311Z,18.10
2019-02-27T10:37:24.755Z,17.60
2019-02-27T10:42:30.219Z,17.00
2019-02-27T10:47:36.496Z,17.00
2019-02-27T10:52:42.735Z,17.10
2019-02-27T10:57:48.133Z,17.30
2019-02-27T11:02:53.478Z,17.50
2019-02-27T11:07:58.958Z,17.60
2019-02-27T11:13:06.691Z,16.90
2019-02-27T11:18:11.540Z,16.30
2019-02-27T11:23:16.941Z,15.20
2019-02-27T11:28:22.537Z,15.30
2019-02-27T11:33:32.731Z,15.40
2019-02-27T11:38:34.976Z,15.00
2019-02-27T11:43:40.850Z,15.90
2019-02-27T11:48:46.924Z,15.50
2019-02-27T11:53:52.350Z,15.00
2019-02-27T11:58:57.823Z,15.20
2019-02-27T12:04:03.444Z,15.50
2019-02-27T12:09:09.159Z,15.50
2019-02-27T12:14:14.670Z,15.40
2019-02-27T12:19:20.004Z,15.50
2019-02-27T12:24:25.339Z,16.50
2019-02-27T12:29:30.746Z,16.50
2019-02-27T12:34:37.211Z,16.70
2019-02-27T12:39:43.605Z,17.30
2019-02-27T12:44:53.910Z,17.80
2019-02-27T12:49:57.200Z,18.10
2019-02-27T12:55:06.480Z,18.90
2019-02-27T13:00:29.745Z,19.40
2019-02-27T13:05:35.303Z,19.30
2019-02-27T13:10:40.736Z,19.40
2019-02-27T13:15:46.139Z,18.70
2019-02-27T13:20:51.621Z,18.70
2019-02-27T13:25:57.517Z,19.50
2019-02-27T13:31:05.262Z,19.40
2019-02-27T13:36:12.738Z,18.30
2019-02-27T13:41:18.259Z,17.20
2019-02-27T13:46:23.690Z,16.40
2019-02-27T13:51:29.102Z,15.80
2019-02-27T13:56:34.474Z,16.00
2019-02-27T14:01:40.048Z,15.50
2019-02-27T14:06:47.366Z,15.70
2019-02-27T14:11:52.540Z,16.10
2019-02-27T14:16:57.966Z,15.90
2019-02-27T14:22:07.193Z,16.40
2019-02-27T14:27:11.965Z,16.40
2019-02-27T14:32:18.687Z,15.50
2019-02-27T14:37:24.092Z,15.30
2019-02-27T14:42:29.458Z,14.80
2019-02-27T14:47:34.839Z,14.60
2019-02-27T14:52:40.250Z,14.80
2019-02-27T14:57:49.970Z,15.20
2019-02-27T15:02:55.697Z,14.60
2019-02-27T15:08:01.459Z,14.80
2019-02-27T15:13:06.934Z,14.50
2019-02-27T15:18:14.005Z,14.10
2019-02-27T15:23:19.545Z,14.10
2019-02-27T15:28:24.884Z,13.90
2019-02-27T15:33:30.290Z,13.60
2019-02-27T15:38:35.640Z,13.50
2019-02-27T15:43:41.056Z,13.50
2019-02-27T15:48:46.480Z,13.50
2019-02-27T15:53:51.979Z,13.40
2019-02-27T15:58:59.325Z,13.80
2019-02-27T16:04:04.572Z,13.60
2019-02-27T16:09:11.081Z,13.50
2019-02-27T16:14:17.611Z,13.10
2019-02-27T16:19:23.184Z,12.90
2019-02-27T16:24:28.654Z,13.00
2019-02-27T16:29:33.998Z,12.70
2019-02-27T16:34:39.372Z,12.60
2019-02-27T16:39:45.724Z,12.80
2019-02-27T16:44:54.367Z,12.90
2019-02-27T16:49:58.496Z,12.90
2019-02-27T16:55:04.789Z,12.80
2019-02-27T17:00:17.833Z,12.80
2019-02-27T17:05:21.312Z,12.40
2019-02-27T17:10:29.478Z,12.20
2019-02-27T17:15:36.299Z,11.90
2019-02-27T17:20:46.034Z,12.10
2019-02-27T17:25:49.771Z,11.90
2019-02-27T17:30:55.136Z,12.00
2019-02-27T17:36:00.589Z,11.90
2019-02-27T17:41:08.943Z,11.90
2019-02-27T17:46:13.143Z,11.80
2019-02-27T17:51:18.571Z,11.80
2019-02-27T17:56:24.062Z,11.60
2019-02-27T18:01:29.519Z,11.80
2019-02-27T18:06:35.551Z,11.80
2019-02-27T18:11:41.051Z,11.50
2019-02-27T18:16:46.398Z,11.50
2019-02-27T18:21:52.023Z,11.60
2019-02-27T18:26:57.372Z,11.90
2019-02-27T18:32:06.362Z,11.70
2019-02-27T18:37:09.938Z,12.00
2019-02-27T18:42:17.231Z,11.60
2019-02-27T18:47:22.358Z,11.60
2019-02-27T18:52:27.761Z,11.50
2019-02-27T18:57:33.161Z,11.60
2019-02-27T19:02:38.685Z,11.70
2019-02-27T19:07:44.320Z,11.50
2019-02-27T19:12:49.875Z,11.50
2019-02-27T19:17:55.598Z,11.50
2019-02-27T19:23:01.233Z,11.40
2019-02-27T19:28:07.327Z,11.30
2019-02-27T19:33:13.024Z,11.30
2019-02-27T19:38:18.544Z,11.20
2019-02-27T19:43:24.294Z,11.10
2019-02-27T19:48:29.719Z,11.10
2019-02-27T19:53:39.392Z,11.10
2019-02-27T19:58:42.325Z,11.30
2019-02-27T20:03:47.845Z,11.10
2019-02-27T20:08:53.263Z,11.00
2019-02-27T20:14:02.027Z,11.00
2019-02-27T20:19:05.739Z,11.40
2019-02-27T20:24:14.439Z,11.30
2019-02-27T20:29:18.339Z,11.20
2019-02-27T20:34:33.863Z,11.30
2019-02-27T20:39:39.422Z,11.20
2019-02-27T20:44:45.332Z,11.40
2019-02-27T20:49:50.767Z,11.00
2019-02-27T20:54:58.908Z,11.10
2019-02-27T21:00:06.257Z,11.10
2019-02-27T21:05:12.981Z,11.00
2019-02-27T21:10:27.395Z,10.80
2019-02-27T21:15:33.464Z,11.10
2019-02-27T21:20:39.103Z,11.30
2019-02-27T21:25:48.890Z,11.80
2019-02-27T21:30:52.343Z,11.80
2019-02-27T21:36:00.151Z,11.70
2019-02-27T21:41:11.356Z,11.40
2019-02-27T21:46:14.837Z,11.30
2019-02-27T21:51:20.238Z,10.90
2019-02-27T21:56:25.817Z,10.80
2019-02-27T22:01:31.784Z,10.90
2019-02-27T22:06:40.129Z,10.70
2019-02-27T22:11:45.574Z,10.60
2019-02-27T22:16:51.100Z,10.80
2019-02-27T22:21:56.454Z,10.80
2019-02-27T22:27:01.885Z,10.50
2019-02-27T22:32:07.386Z,10.50
2019-02-27T22:37:17.471Z,10.60
2019-02-27T22:42:20.023Z,10.40
2019-02-27T22:47:25.580Z,10.60
2019-02-27T22:52:30.923Z,10.50
2019-02-27T22:57:36.502Z,10.60
2019-02-27T23:02:41.980Z,10.80
2019-02-27T23:07:48.162Z,10.60
2019-02-27T23:12:53.698Z,10.70
2019-02-27T23:18:02.448Z,10.70
2019-02-27T23:23:06.898Z,11.00
2019-02-27T23:28:12.493Z,11.20
2019-02-27T23:33:17.980Z,11.40
2019-02-27T23:38:24.553Z,11.10
2019-02-27T23:43:29.927Z,11.20
2019-02-27T23:48:36.227Z,11.40
2019-02-27T23:53:42.283Z,11.20
2019-02-27T23:58:47.654Z,11.20
